sensor_id;sensor_type;location;lat;lon;timestamp;temperature;humidity
78902;DHT22;70441;44.758;37.686;2023-06-26T00:00:34;24.31;55.00
78902;DHT22;70441;44.758;37.686;2023-06-26T00:01:38;24.31;55.19
78902;DHT22;70441;44.758;37.686;2023-06-26T00:02:41;24.30;55.26
78902;DHT22;70441;44.758;37.686;2023-06-26T00:03:42;24.30;54.52
78902;DHT22;70441;44.758;37.686;2023-06-26T00:04:44;24.30;54.79
78902;DHT22;70441;44.758;37.686;2023-06-26T00:05:46;24.31;54.81
78902;DHT22;70441;44.758;37.686;2023-06-26T00:06:47;24.30;54.52
78902;DHT22;70441;44.758;37.686;2023-06-26T00:07:49;24.27;54.69
78902;DHT22;70441;44.758;37.686;2023-06-26T00:08:51;24.30;54.97
78902;DHT22;70441;44.758;37.686;2023-06-26T00:09:52;24.26;55.21
78902;DHT22;70441;44.758;37.686;2023-06-26T00:10:54;24.20;55.06
78902;DHT22;70441;44.758;37.686;2023-06-26T00:11:56;24.15;54.73
78902;DHT22;70441;44.758;37.686;2023-06-26T00:12:57;24.15;54.00
78902;DHT22;70441;44.758;37.686;2023-06-26T00:14:00;24.15;54.17
78902;DHT22;70441;44.758;37.686;2023-06-26T00:15:02;24.19;53.66
78902;DHT22;70441;44.758;37.686;2023-06-26T00:16:09;24.23;52.93
78902;DHT22;70441;44.758;37.686;2023-06-26T00:17:11;24.24;52.58
78902;DHT22;70441;44.758;37.686;2023-06-26T00:18:13;24.29;52.59
78902;DHT22;70441;44.758;37.686;2023-06-26T00:19:15;24.29;52.96
78902;DHT22;70441;44.758;37.686;2023-06-26T00:20:16;24.30;53.13
78902;DHT22;70441;44.758;37.686;2023-06-26T00:21:20;24.27;53.07
78902;DHT22;70441;44.758;37.686;2023-06-26T00:22:21;24.27;53.44
78902;DHT22;70441;44.758;37.686;2023-06-26T00:23:23;24.27;53.57
78902;DHT22;70441;44.758;37.686;2023-06-26T00:24:24;24.26;53.67
78902;DHT22;70441;44.758;37.686;2023-06-26T00:25:26;24.23;53.77
78902;DHT22;70441;44.758;37.686;2023-06-26T00:26:28;24.19;53.71
78902;DHT22;70441;44.758;37.686;2023-06-26T00:27:29;24.16;53.82
78902;DHT22;70441;44.758;37.686;2023-06-26T00:28:31;24.16;53.11
78902;DHT22;70441;44.758;37.686;2023-06-26T00:29:32;24.23;53.12
78902;DHT22;70441;44.758;37.686;2023-06-26T00:30:34;24.22;53.59
78902;DHT22;70441;44.758;37.686;2023-06-26T00:31:35;24.17;53.71
78902;DHT22;70441;44.758;37.686;2023-06-26T00:32:37;24.17;53.04
78902;DHT22;70441;44.758;37.686;2023-06-26T00:33:38;24.19;52.64
78902;DHT22;70441;44.758;37.686;2023-06-26T00:34:40;24.22;52.73
78902;DHT22;70441;44.758;37.686;2023-06-26T00:35:43;24.20;52.72
78902;DHT22;70441;44.758;37.686;2023-06-26T00:36:46;24.22;52.91
78902;DHT22;70441;44.758;37.686;2023-06-26T00:37:47;24.19;53.22
78902;DHT22;70441;44.758;37.686;2023-06-26T00:38:49;24.22;53.45
78902;DHT22;70441;44.758;37.686;2023-06-26T00:39:51;24.22;53.53
78902;DHT22;70441;44.758;37.686;2023-06-26T00:40:53;24.24;53.69
78902;DHT22;70441;44.758;37.686;2023-06-26T00:41:58;24.20;53.81
78902;DHT22;70441;44.758;37.686;2023-06-26T00:43:00;24.23;53.97
78902;DHT22;70441;44.758;37.686;2023-06-26T00:44:01;24.20;54.24
78902;DHT22;70441;44.758;37.686;2023-06-26T00:45:03;24.23;54.24
78902;DHT22;70441;44.758;37.686;2023-06-26T00:46:13;24.23;54.23
78902;DHT22;70441;44.758;37.686;2023-06-26T00:47:16;24.27;54.28
78902;DHT22;70441;44.758;37.686;2023-06-26T00:48:19;24.27;54.52
78902;DHT22;70441;44.758;37.686;2023-06-26T00:49:20;24.29;54.53
78902;DHT22;70441;44.758;37.686;2023-06-26T00:50:22;24.31;54.67
78902;DHT22;70441;44.758;37.686;2023-06-26T00:51:23;24.30;54.89
78902;DHT22;70441;44.758;37.686;2023-06-26T00:52:25;24.31;55.07
78902;DHT22;70441;44.758;37.686;2023-06-26T00:53:27;24.34;55.35
78902;DHT22;70441;44.758;37.686;2023-06-26T00:54:29;24.37;55.13
78902;DHT22;70441;44.758;37.686;2023-06-26T00:55:31;24.36;55.08
78902;DHT22;70441;44.758;37.686;2023-06-26T00:56:32;24.37;55.43
78902;DHT22;70441;44.758;37.686;2023-06-26T00:57:34;24.34;55.80
78902;DHT22;70441;44.758;37.686;2023-06-26T00:58:36;24.31;56.18
78902;DHT22;70441;44.758;37.686;2023-06-26T00:59:38;24.29;56.21
78902;DHT22;70441;44.758;37.686;2023-06-26T01:00:40;24.26;56.29
78902;DHT22;70441;44.758;37.686;2023-06-26T01:01:41;24.23;56.63
78902;DHT22;70441;44.758;37.686;2023-06-26T01:02:45;24.23;56.37
78902;DHT22;70441;44.758;37.686;2023-06-26T01:03:51;24.19;56.46
78902;DHT22;70441;44.758;37.686;2023-06-26T01:04:53;24.20;56.45
78902;DHT22;70441;44.758;37.686;2023-06-26T01:05:56;24.22;56.66
78902;DHT22;70441;44.758;37.686;2023-06-26T01:07:01;24.19;56.34
78902;DHT22;70441;44.758;37.686;2023-06-26T01:08:04;24.20;56.38
78902;DHT22;70441;44.758;37.686;2023-06-26T01:09:11;24.19;56.51
78902;DHT22;70441;44.758;37.686;2023-06-26T01:10:12;24.23;56.56
78902;DHT22;70441;44.758;37.686;2023-06-26T01:11:14;24.24;55.22
78902;DHT22;70441;44.758;37.686;2023-06-26T01:12:16;24.31;55.46
78902;DHT22;70441;44.758;37.686;2023-06-26T01:13:18;24.33;55.55
78902;DHT22;70441;44.758;37.686;2023-06-26T01:14:20;24.34;55.65
78902;DHT22;70441;44.758;37.686;2023-06-26T01:15:22;24.34;56.10
78902;DHT22;70441;44.758;37.686;2023-06-26T01:16:27;24.34;56.10
78902;DHT22;70441;44.758;37.686;2023-06-26T01:17:31;24.34;56.08
78902;DHT22;70441;44.758;37.686;2023-06-26T01:18:33;24.33;56.27
78902;DHT22;70441;44.758;37.686;2023-06-26T01:19:35;24.37;56.13
78902;DHT22;70441;44.758;37.686;2023-06-26T01:20:38;24.37;56.32
78902;DHT22;70441;44.758;37.686;2023-06-26T01:21:44;24.36;56.47
78902;DHT22;70441;44.758;37.686;2023-06-26T01:24:21;24.33;56.77
78902;DHT22;70441;44.758;37.686;2023-06-26T01:26:40;24.30;56.38
78902;DHT22;70441;44.758;37.686;2023-06-26T01:27:45;24.31;56.35
78902;DHT22;70441;44.758;37.686;2023-06-26T01:28:49;24.30;56.38
78902;DHT22;70441;44.758;37.686;2023-06-26T01:29:53;24.30;56.65
78902;DHT22;70441;44.758;37.686;2023-06-26T01:30:55;24.29;56.47
78902;DHT22;70441;44.758;37.686;2023-06-26T01:31:58;24.29;56.57
78902;DHT22;70441;44.758;37.686;2023-06-26T01:33:03;24.26;56.84
78902;DHT22;70441;44.758;37.686;2023-06-26T01:34:04;24.23;56.87
78902;DHT22;70441;44.758;37.686;2023-06-26T01:35:07;24.22;57.08
78902;DHT22;70441;44.758;37.686;2023-06-26T01:36:14;24.16;57.12
78902;DHT22;70441;44.758;37.686;2023-06-26T01:37:16;24.15;57.13
78902;DHT22;70441;44.758;37.686;2023-06-26T01:38:20;24.09;57.25
78902;DHT22;70441;44.758;37.686;2023-06-26T01:39:22;24.05;57.37
78902;DHT22;70441;44.758;37.686;2023-06-26T01:40:25;23.96;57.51
78902;DHT22;70441;44.758;37.686;2023-06-26T01:41:27;23.92;56.85
78902;DHT22;70441;44.758;37.686;2023-06-26T01:42:29;23.96;56.75
78902;DHT22;70441;44.758;37.686;2023-06-26T01:45:13;24.02;56.24
78902;DHT22;70441;44.758;37.686;2023-06-26T01:46:22;24.02;56.87
78902;DHT22;70441;44.758;37.686;2023-06-26T01:47:25;23.94;56.99
78902;DHT22;70441;44.758;37.686;2023-06-26T01:48:34;23.85;57.16
78902;DHT22;70441;44.758;37.686;2023-06-26T01:50:02;23.82;56.97
78902;DHT22;70441;44.758;37.686;2023-06-26T01:51:14;23.84;56.77
78902;DHT22;70441;44.758;37.686;2023-06-26T01:53:25;23.79;56.58
78902;DHT22;70441;44.758;37.686;2023-06-26T01:54:34;23.78;56.11
78902;DHT22;70441;44.758;37.686;2023-06-26T01:55:50;23.82;56.09
78902;DHT22;70441;44.758;37.686;2023-06-26T01:56:53;23.81;55.61
78902;DHT22;70441;44.758;37.686;2023-06-26T01:57:56;23.82;55.62
78902;DHT22;70441;44.758;37.686;2023-06-26T01:59:00;23.85;55.69
78902;DHT22;70441;44.758;37.686;2023-06-26T02:00:02;23.84;55.68
78902;DHT22;70441;44.758;37.686;2023-06-26T02:01:20;23.86;55.57
78902;DHT22;70441;44.758;37.686;2023-06-26T02:02:24;23.86;55.71
78902;DHT22;70441;44.758;37.686;2023-06-26T02:03:25;23.86;55.61
78902;DHT22;70441;44.758;37.686;2023-06-26T02:04:27;23.88;55.96
78902;DHT22;70441;44.758;37.686;2023-06-26T02:05:29;23.89;56.02
78902;DHT22;70441;44.758;37.686;2023-06-26T02:06:33;23.85;56.27
78902;DHT22;70441;44.758;37.686;2023-06-26T02:07:35;23.81;56.57
78902;DHT22;70441;44.758;37.686;2023-06-26T02:08:37;23.72;56.69
78902;DHT22;70441;44.758;37.686;2023-06-26T02:09:39;23.65;56.71
78902;DHT22;70441;44.758;37.686;2023-06-26T02:10:40;23.63;57.01
78902;DHT22;70441;44.758;37.686;2023-06-26T02:11:42;23.61;56.79
78902;DHT22;70441;44.758;37.686;2023-06-26T02:12:44;23.63;56.36
78902;DHT22;70441;44.758;37.686;2023-06-26T02:13:47;23.64;56.50
78902;DHT22;70441;44.758;37.686;2023-06-26T02:14:49;23.65;56.46
78902;DHT22;70441;44.758;37.686;2023-06-26T02:15:57;23.71;56.21
78902;DHT22;70441;44.758;37.686;2023-06-26T02:16:59;23.77;56.16
78902;DHT22;70441;44.758;37.686;2023-06-26T02:18:01;23.79;56.45
78902;DHT22;70441;44.758;37.686;2023-06-26T02:19:03;23.72;56.87
78902;DHT22;70441;44.758;37.686;2023-06-26T02:20:05;23.72;56.68
78902;DHT22;70441;44.758;37.686;2023-06-26T02:21:13;23.77;56.35
78902;DHT22;70441;44.758;37.686;2023-06-26T02:22:15;23.82;56.63
78902;DHT22;70441;44.758;37.686;2023-06-26T02:23:17;23.81;56.77
78902;DHT22;70441;44.758;37.686;2023-06-26T02:24:19;23.85;56.46
78902;DHT22;70441;44.758;37.686;2023-06-26T02:25:21;23.89;56.46
78902;DHT22;70441;44.758;37.686;2023-06-26T02:26:23;23.86;56.58
78902;DHT22;70441;44.758;37.686;2023-06-26T02:27:24;23.86;56.64
78902;DHT22;70441;44.758;37.686;2023-06-26T02:28:28;23.88;56.35
78902;DHT22;70441;44.758;37.686;2023-06-26T02:29:29;23.95;56.36
78902;DHT22;70441;44.758;37.686;2023-06-26T02:30:31;23.94;56.46
78902;DHT22;70441;44.758;37.686;2023-06-26T02:31:34;23.98;56.32
78902;DHT22;70441;44.758;37.686;2023-06-26T02:32:36;24.04;56.19
78902;DHT22;70441;44.758;37.686;2023-06-26T02:33:37;24.10;55.82
78902;DHT22;70441;44.758;37.686;2023-06-26T02:34:39;24.19;55.56
78902;DHT22;70441;44.758;37.686;2023-06-26T02:35:41;24.23;55.33
78902;DHT22;70441;44.758;37.686;2023-06-26T02:36:45;24.27;55.63
78902;DHT22;70441;44.758;37.686;2023-06-26T02:37:48;24.34;55.15
78902;DHT22;70441;44.758;37.686;2023-06-26T02:38:50;24.43;54.85
78902;DHT22;70441;44.758;37.686;2023-06-26T02:39:52;24.50;54.72
78902;DHT22;70441;44.758;37.686;2023-06-26T02:40:53;24.60;54.73
78902;DHT22;70441;44.758;37.686;2023-06-26T02:41:55;24.68;54.53
78902;DHT22;70441;44.758;37.686;2023-06-26T02:42:58;24.76;54.12
78902;DHT22;70441;44.758;37.686;2023-06-26T02:44:00;24.85;53.92
78902;DHT22;70441;44.758;37.686;2023-06-26T02:45:01;25.00;53.49
78902;DHT22;70441;44.758;37.686;2023-06-26T02:46:10;25.17;54.22
78902;DHT22;70441;44.758;37.686;2023-06-26T02:47:12;25.14;54.33
78902;DHT22;70441;44.758;37.686;2023-06-26T02:48:17;25.19;54.26
78902;DHT22;70441;44.758;37.686;2023-06-26T02:49:18;25.33;54.23
78902;DHT22;70441;44.758;37.686;2023-06-26T02:50:20;25.42;53.88
78902;DHT22;70441;44.758;37.686;2023-06-26T02:51:42;25.52;53.01
78902;DHT22;70441;44.758;37.686;2023-06-26T02:52:58;25.64;53.36
78902;DHT22;70441;44.758;37.686;2023-06-26T02:54:00;25.79;52.56
78902;DHT22;70441;44.758;37.686;2023-06-26T02:55:02;25.90;52.12
78902;DHT22;70441;44.758;37.686;2023-06-26T02:56:10;26.06;51.95
78902;DHT22;70441;44.758;37.686;2023-06-26T02:57:11;26.23;51.57
78902;DHT22;70441;44.758;37.686;2023-06-26T02:58:14;26.37;51.48
78902;DHT22;70441;44.758;37.686;2023-06-26T02:59:15;26.44;50.95
78902;DHT22;70441;44.758;37.686;2023-06-26T03:00:17;26.55;50.69
78902;DHT22;70441;44.758;37.686;2023-06-26T03:01:23;26.68;51.25
78902;DHT22;70441;44.758;37.686;2023-06-26T03:02:25;26.78;50.43
78902;DHT22;70441;44.758;37.686;2023-06-26T03:03:28;26.79;50.91
78902;DHT22;70441;44.758;37.686;2023-06-26T03:04:29;26.91;50.34
78902;DHT22;70441;44.758;37.686;2023-06-26T03:05:31;27.06;50.55
78902;DHT22;70441;44.758;37.686;2023-06-26T03:06:34;27.18;49.88
78902;DHT22;70441;44.758;37.686;2023-06-26T03:07:35;27.30;48.33
78902;DHT22;70441;44.758;37.686;2023-06-26T03:08:37;27.39;48.45
78902;DHT22;70441;44.758;37.686;2023-06-26T03:09:40;27.49;48.06
78902;DHT22;70441;44.758;37.686;2023-06-26T03:10:42;27.66;47.71
78902;DHT22;70441;44.758;37.686;2023-06-26T03:11:45;27.80;48.38
78902;DHT22;70441;44.758;37.686;2023-06-26T03:12:47;27.91;48.58
78902;DHT22;70441;44.758;37.686;2023-06-26T03:13:48;28.01;47.77
78902;DHT22;70441;44.758;37.686;2023-06-26T03:14:51;28.14;47.61
78902;DHT22;70441;44.758;37.686;2023-06-26T03:15:58;28.26;47.21
78902;DHT22;70441;44.758;37.686;2023-06-26T03:17:00;28.31;47.34
78902;DHT22;70441;44.758;37.686;2023-06-26T03:18:05;28.43;47.00
78902;DHT22;70441;44.758;37.686;2023-06-26T03:19:07;28.50;46.05
78902;DHT22;70441;44.758;37.686;2023-06-26T03:20:28;28.64;46.52
78902;DHT22;70441;44.758;37.686;2023-06-26T03:21:32;28.64;46.77
78902;DHT22;70441;44.758;37.686;2023-06-26T03:22:35;28.75;46.24
78902;DHT22;70441;44.758;37.686;2023-06-26T03:23:36;28.81;45.15
78902;DHT22;70441;44.758;37.686;2023-06-26T03:24:38;28.87;44.90
78902;DHT22;70441;44.758;37.686;2023-06-26T03:25:40;28.87;44.99
78902;DHT22;70441;44.758;37.686;2023-06-26T03:26:58;28.90;44.72
78902;DHT22;70441;44.758;37.686;2023-06-26T03:28:00;28.98;44.85
78902;DHT22;70441;44.758;37.686;2023-06-26T03:29:02;29.02;44.83
78902;DHT22;70441;44.758;37.686;2023-06-26T03:30:04;29.12;44.71
78902;DHT22;70441;44.758;37.686;2023-06-26T03:31:13;29.14;43.93
78902;DHT22;70441;44.758;37.686;2023-06-26T03:32:16;29.15;44.42
78902;DHT22;70441;44.758;37.686;2023-06-26T03:33:17;29.20;44.10
78902;DHT22;70441;44.758;37.686;2023-06-26T03:34:19;29.29;43.91
78902;DHT22;70441;44.758;37.686;2023-06-26T03:35:21;29.37;44.01
78902;DHT22;70441;44.758;37.686;2023-06-26T03:36:23;29.45;43.52
78902;DHT22;70441;44.758;37.686;2023-06-26T03:37:25;29.51;43.92
78902;DHT22;70441;44.758;37.686;2023-06-26T03:38:26;29.60;43.12
78902;DHT22;70441;44.758;37.686;2023-06-26T03:39:30;29.67;43.57
78902;DHT22;70441;44.758;37.686;2023-06-26T03:40:32;29.75;42.10
78902;DHT22;70441;44.758;37.686;2023-06-26T03:41:33;29.77;43.17
78902;DHT22;70441;44.758;37.686;2023-06-26T03:42:35;29.86;43.17
78902;DHT22;70441;44.758;37.686;2023-06-26T03:43:36;29.86;41.81
78902;DHT22;70441;44.758;37.686;2023-06-26T03:45:07;29.97;42.48
78902;DHT22;70441;44.758;37.686;2023-06-26T03:46:15;30.09;40.81
78902;DHT22;70441;44.758;37.686;2023-06-26T03:47:17;30.13;41.45
78902;DHT22;70441;44.758;37.686;2023-06-26T03:48:18;30.19;41.31
78902;DHT22;70441;44.758;37.686;2023-06-26T03:49:20;30.23;41.29
78902;DHT22;70441;44.758;37.686;2023-06-26T03:50:21;30.32;41.24
78902;DHT22;70441;44.758;37.686;2023-06-26T03:51:23;30.47;40.56
78902;DHT22;70441;44.758;37.686;2023-06-26T03:52:25;30.56;41.41
78902;DHT22;70441;44.758;37.686;2023-06-26T03:53:26;30.63;41.44
78902;DHT22;70441;44.758;37.686;2023-06-26T03:54:28;30.71;42.16
78902;DHT22;70441;44.758;37.686;2023-06-26T03:55:29;30.84;40.57
78902;DHT22;70441;44.758;37.686;2023-06-26T03:56:31;31.02;40.05
78902;DHT22;70441;44.758;37.686;2023-06-26T03:57:32;31.13;39.50
78902;DHT22;70441;44.758;37.686;2023-06-26T03:58:34;31.23;39.91
78902;DHT22;70441;44.758;37.686;2023-06-26T03:59:36;31.00;39.04
78902;DHT22;70441;44.758;37.686;2023-06-26T04:00:37;30.79;42.11
78902;DHT22;70441;44.758;37.686;2023-06-26T04:01:39;30.91;40.65
78902;DHT22;70441;44.758;37.686;2023-06-26T04:02:41;31.13;39.17
78902;DHT22;70441;44.758;37.686;2023-06-26T04:03:43;31.35;39.67
78902;DHT22;70441;44.758;37.686;2023-06-26T04:04:46;31.51;39.10
78902;DHT22;70441;44.758;37.686;2023-06-26T04:05:49;31.68;37.57
78902;DHT22;70441;44.758;37.686;2023-06-26T04:06:50;31.76;38.56
78902;DHT22;70441;44.758;37.686;2023-06-26T04:07:52;31.86;39.03
78902;DHT22;70441;44.758;37.686;2023-06-26T04:08:54;32.00;37.85
78902;DHT22;70441;44.758;37.686;2023-06-26T04:09:57;32.08;37.58
78902;DHT22;70441;44.758;37.686;2023-06-26T04:10:58;32.17;39.04
78902;DHT22;70441;44.758;37.686;2023-06-26T04:12:01;32.27;38.12
78902;DHT22;70441;44.758;37.686;2023-06-26T04:13:02;32.40;37.42
78902;DHT22;70441;44.758;37.686;2023-06-26T04:14:04;32.47;35.91
78902;DHT22;70441;44.758;37.686;2023-06-26T04:15:06;32.51;36.44
78902;DHT22;70441;44.758;37.686;2023-06-26T04:16:13;32.55;37.00
78902;DHT22;70441;44.758;37.686;2023-06-26T04:17:14;32.64;36.71
78902;DHT22;70441;44.758;37.686;2023-06-26T04:18:21;32.76;35.92
78902;DHT22;70441;44.758;37.686;2023-06-26T04:19:23;32.80;35.03
78902;DHT22;70441;44.758;37.686;2023-06-26T04:20:24;32.82;34.95
78902;DHT22;70441;44.758;37.686;2023-06-26T04:21:26;32.80;35.37
78902;DHT22;70441;44.758;37.686;2023-06-26T04:22:27;32.76;35.89
78902;DHT22;70441;44.758;37.686;2023-06-26T04:23:29;32.79;35.40
78902;DHT22;70441;44.758;37.686;2023-06-26T04:24:30;32.89;36.66
78902;DHT22;70441;44.758;37.686;2023-06-26T04:25:32;33.04;35.64
78902;DHT22;70441;44.758;37.686;2023-06-26T04:26:33;33.13;35.62
78902;DHT22;70441;44.758;37.686;2023-06-26T04:27:35;33.11;36.29
78902;DHT22;70441;44.758;37.686;2023-06-26T04:28:36;33.14;35.67
78902;DHT22;70441;44.758;37.686;2023-06-26T04:29:38;33.14;35.21
78902;DHT22;70441;44.758;37.686;2023-06-26T04:30:39;33.20;35.66
78902;DHT22;70441;44.758;37.686;2023-06-26T04:31:41;33.17;34.36
78902;DHT22;70441;44.758;37.686;2023-06-26T04:32:42;33.21;34.78
78902;DHT22;70441;44.758;37.686;2023-06-26T04:33:44;33.26;35.93
78902;DHT22;70441;44.758;37.686;2023-06-26T04:34:45;33.28;35.09
78902;DHT22;70441;44.758;37.686;2023-06-26T04:35:49;33.30;34.24
78902;DHT22;70441;44.758;37.686;2023-06-26T04:36:50;33.30;34.28
78902;DHT22;70441;44.758;37.686;2023-06-26T04:37:52;33.28;34.14
78902;DHT22;70441;44.758;37.686;2023-06-26T04:38:59;33.34;36.00
78902;DHT22;70441;44.758;37.686;2023-06-26T04:40:01;33.28;35.35
78902;DHT22;70441;44.758;37.686;2023-06-26T04:41:10;33.23;34.39
78902;DHT22;70441;44.758;37.686;2023-06-26T04:42:11;33.26;35.49
78902;DHT22;70441;44.758;37.686;2023-06-26T04:43:13;33.31;34.79
78902;DHT22;70441;44.758;37.686;2023-06-26T04:44:15;33.38;34.66
78902;DHT22;70441;44.758;37.686;2023-06-26T04:45:16;33.44;34.45
78902;DHT22;70441;44.758;37.686;2023-06-26T04:46:18;33.51;34.63
78902;DHT22;70441;44.758;37.686;2023-06-26T04:47:20;33.51;33.58
78902;DHT22;70441;44.758;37.686;2023-06-26T04:48:21;33.50;35.29
78902;DHT22;70441;44.758;37.686;2023-06-26T04:49:23;33.59;34.22
78902;DHT22;70441;44.758;37.686;2023-06-26T04:50:25;33.65;33.94
78902;DHT22;70441;44.758;37.686;2023-06-26T04:51:27;33.59;34.41
78902;DHT22;70441;44.758;37.686;2023-06-26T04:52:30;33.61;34.27
78902;DHT22;70441;44.758;37.686;2023-06-26T04:53:32;33.51;34.72
78902;DHT22;70441;44.758;37.686;2023-06-26T04:54:33;33.54;33.94
78902;DHT22;70441;44.758;37.686;2023-06-26T04:55:35;33.54;33.73
78902;DHT22;70441;44.758;37.686;2023-06-26T04:56:37;33.48;34.40
78902;DHT22;70441;44.758;37.686;2023-06-26T04:57:41;33.45;34.35
78902;DHT22;70441;44.758;37.686;2023-06-26T04:58:42;33.52;35.29
78902;DHT22;70441;44.758;37.686;2023-06-26T04:59:44;33.42;33.24
78902;DHT22;70441;44.758;37.686;2023-06-26T05:00:46;33.30;34.40
78902;DHT22;70441;44.758;37.686;2023-06-26T05:01:47;33.33;34.92
78902;DHT22;70441;44.758;37.686;2023-06-26T05:02:49;33.50;35.22
78902;DHT22;70441;44.758;37.686;2023-06-26T05:03:50;33.69;35.66
78902;DHT22;70441;44.758;37.686;2023-06-26T05:04:52;33.75;33.58
78902;DHT22;70441;44.758;37.686;2023-06-26T05:05:53;33.72;34.25
78902;DHT22;70441;44.758;37.686;2023-06-26T05:06:55;33.82;34.05
78902;DHT22;70441;44.758;37.686;2023-06-26T05:07:56;33.88;33.93
78902;DHT22;70441;44.758;37.686;2023-06-26T05:08:58;33.93;33.66
78902;DHT22;70441;44.758;37.686;2023-06-26T05:10:00;33.89;34.36
78902;DHT22;70441;44.758;37.686;2023-06-26T05:11:01;33.90;35.14
78902;DHT22;70441;44.758;37.686;2023-06-26T05:12:03;33.94;33.87
78902;DHT22;70441;44.758;37.686;2023-06-26T05:13:04;33.97;35.22
78902;DHT22;70441;44.758;37.686;2023-06-26T05:14:06;34.11;34.49
78902;DHT22;70441;44.758;37.686;2023-06-26T05:15:10;34.18;34.23
78902;DHT22;70441;44.758;37.686;2023-06-26T05:16:17;34.25;33.50
78902;DHT22;70441;44.758;37.686;2023-06-26T05:17:19;34.28;33.85
78902;DHT22;70441;44.758;37.686;2023-06-26T05:18:20;34.29;32.45
78902;DHT22;70441;44.758;37.686;2023-06-26T05:19:22;34.25;33.08
78902;DHT22;70441;44.758;37.686;2023-06-26T05:20:23;34.33;32.82
78902;DHT22;70441;44.758;37.686;2023-06-26T05:21:25;34.29;32.69
78902;DHT22;70441;44.758;37.686;2023-06-26T05:22:27;34.27;33.76
78902;DHT22;70441;44.758;37.686;2023-06-26T05:23:32;34.35;32.61
78902;DHT22;70441;44.758;37.686;2023-06-26T05:24:38;34.41;34.31
78902;DHT22;70441;44.758;37.686;2023-06-26T05:25:40;34.55;34.26
78902;DHT22;70441;44.758;37.686;2023-06-26T05:26:42;34.53;32.84
78902;DHT22;70441;44.758;37.686;2023-06-26T05:27:44;34.58;33.43
78902;DHT22;70441;44.758;37.686;2023-06-26T05:28:45;34.49;32.81
78902;DHT22;70441;44.758;37.686;2023-06-26T05:29:49;34.52;33.02
78902;DHT22;70441;44.758;37.686;2023-06-26T05:30:51;34.53;32.02
78902;DHT22;70441;44.758;37.686;2023-06-26T05:31:53;34.53;33.91
78902;DHT22;70441;44.758;37.686;2023-06-26T05:32:59;34.60;32.92
78902;DHT22;70441;44.758;37.686;2023-06-26T05:34:02;34.66;31.87
78902;DHT22;70441;44.758;37.686;2023-06-26T05:35:05;34.66;32.41
78902;DHT22;70441;44.758;37.686;2023-06-26T05:36:15;34.76;32.89
78902;DHT22;70441;44.758;37.686;2023-06-26T05:37:20;34.84;34.13
78902;DHT22;70441;44.758;37.686;2023-06-26T05:38:22;34.84;33.20
78902;DHT22;70441;44.758;37.686;2023-06-26T05:39:24;34.93;32.56
78902;DHT22;70441;44.758;37.686;2023-06-26T05:40:26;34.96;31.73
78902;DHT22;70441;44.758;37.686;2023-06-26T05:41:28;35.01;31.69
78902;DHT22;70441;44.758;37.686;2023-06-26T05:42:29;35.01;31.74
78902;DHT22;70441;44.758;37.686;2023-06-26T05:43:31;34.99;32.85
78902;DHT22;70441;44.758;37.686;2023-06-26T05:44:33;35.03;32.20
78902;DHT22;70441;44.758;37.686;2023-06-26T05:45:34;35.06;32.04
78902;DHT22;70441;44.758;37.686;2023-06-26T05:46:36;35.03;31.39
78902;DHT22;70441;44.758;37.686;2023-06-26T05:47:37;35.04;32.56
78902;DHT22;70441;44.758;37.686;2023-06-26T05:48:39;35.01;32.40
78902;DHT22;70441;44.758;37.686;2023-06-26T05:49:41;34.99;31.20
78902;DHT22;70441;44.758;37.686;2023-06-26T05:50:42;34.89;32.48
78902;DHT22;70441;44.758;37.686;2023-06-26T05:51:45;34.97;32.24
78902;DHT22;70441;44.758;37.686;2023-06-26T05:52:46;35.06;32.90
78902;DHT22;70441;44.758;37.686;2023-06-26T05:53:49;35.08;33.69
78902;DHT22;70441;44.758;37.686;2023-06-26T05:54:51;35.11;32.79
78902;DHT22;70441;44.758;37.686;2023-06-26T05:55:53;35.08;31.97
78902;DHT22;70441;44.758;37.686;2023-06-26T05:56:57;35.07;32.48
78902;DHT22;70441;44.758;37.686;2023-06-26T05:58:01;35.14;33.41
78902;DHT22;70441;44.758;37.686;2023-06-26T05:59:10;35.19;32.54
78902;DHT22;70441;44.758;37.686;2023-06-26T06:00:13;35.24;32.49
78902;DHT22;70441;44.758;37.686;2023-06-26T06:01:20;35.24;32.00
78902;DHT22;70441;44.758;37.686;2023-06-26T06:02:22;35.21;31.61
78902;DHT22;70441;44.758;37.686;2023-06-26T06:03:24;35.14;32.01
78902;DHT22;70441;44.758;37.686;2023-06-26T06:04:30;35.17;31.87
78902;DHT22;70441;44.758;37.686;2023-06-26T06:05:32;35.14;32.06
78902;DHT22;70441;44.758;37.686;2023-06-26T06:06:33;35.17;31.50
78902;DHT22;70441;44.758;37.686;2023-06-26T06:07:40;35.30;31.66
78902;DHT22;70441;44.758;37.686;2023-06-26T06:08:42;35.18;31.56
78902;DHT22;70441;44.758;37.686;2023-06-26T06:09:43;35.15;31.93
78902;DHT22;70441;44.758;37.686;2023-06-26T06:10:45;35.14;32.92
78902;DHT22;70441;44.758;37.686;2023-06-26T06:11:46;35.24;31.99
78902;DHT22;70441;44.758;37.686;2023-06-26T06:12:53;35.25;31.19
78902;DHT22;70441;44.758;37.686;2023-06-26T06:13:58;35.28;32.05
78902;DHT22;70441;44.758;37.686;2023-06-26T06:15:01;35.37;32.53
78902;DHT22;70441;44.758;37.686;2023-06-26T06:16:07;35.39;32.31
78902;DHT22;70441;44.758;37.686;2023-06-26T06:21:25;35.51;32.20
78902;DHT22;70441;44.758;37.686;2023-06-26T06:22:26;35.63;31.69
78902;DHT22;70441;44.758;37.686;2023-06-26T06:23:28;35.72;31.00
78902;DHT22;70441;44.758;37.686;2023-06-26T06:24:30;35.76;31.28
78902;DHT22;70441;44.758;37.686;2023-06-26T06:25:31;35.70;31.49
78902;DHT22;70441;44.758;37.686;2023-06-26T06:26:37;35.60;31.55
78902;DHT22;70441;44.758;37.686;2023-06-26T06:27:38;35.55;31.72
78902;DHT22;70441;44.758;37.686;2023-06-26T06:28:40;35.63;31.89
78902;DHT22;70441;44.758;37.686;2023-06-26T06:29:42;35.73;31.32
78902;DHT22;70441;44.758;37.686;2023-06-26T06:30:43;35.83;31.37
78902;DHT22;70441;44.758;37.686;2023-06-26T06:31:45;35.90;32.26
78902;DHT22;70441;44.758;37.686;2023-06-26T06:32:46;35.97;32.02
78902;DHT22;70441;44.758;37.686;2023-06-26T06:33:51;36.00;30.12
78902;DHT22;70441;44.758;37.686;2023-06-26T06:34:53;36.00;31.08
78902;DHT22;70441;44.758;37.686;2023-06-26T06:35:54;35.96;31.58
78902;DHT22;70441;44.758;37.686;2023-06-26T06:36:56;35.96;30.51
78902;DHT22;70441;44.758;37.686;2023-06-26T06:37:57;35.98;30.52
78902;DHT22;70441;44.758;37.686;2023-06-26T06:38:59;36.09;31.20
78902;DHT22;70441;44.758;37.686;2023-06-26T06:40:00;36.12;31.19
78902;DHT22;70441;44.758;37.686;2023-06-26T06:41:02;36.21;31.39